** WELKOM OP ONZE WEBSITE MET ACTUELE WEERDATA VANUIT IZEGEM **
Het weer levert geen direct gevaar op.    Er zijn geen waarschuwingen afgegeven.

Weercam te Izegem Meer informatie Weercam te Izegem


Lokaal brand risico:
FWI


Regionaal brand risico: Meer informatie



METAR rapporten vliegvelden

   
EBOS - Oostende Airport, Belgium
Afstand tot: NW 39 km
Gewijzigd: 18-10-2018 23:50
Gedeeltelijk bewolkt  
Gedeeltelijk bewolkt  
   Wind: Oosten 11.1 km/h
Wind: Oosten 11.1 km/h
Temperatuur: 12°C
Dauwpunt: 8°C
Vochtigheid: 77%
Barometer: 1025 hPa
Bewolking: Partly Cloudy
Zicht: meer dan 10 km
Bewolking: Gedeeltelijk bewolkt 3200 ft
EBOS 182150Z 10006KT 9999 SCT032 12/08 Q1025 NOSIG
LFQQ - Lille/Lesquin, France
Afstand tot: Z 40 km
Gewijzigd: 19-10-2018 00:00
Helder  
Helder  
   Wind: NNO 13 km/h
Wind: NNO 13 km/h
Temperatuur: 12°C
Dauwpunt: 8°C
Vochtigheid: 77%
Barometer: 1024 hPa
Zicht: meer dan 10 km
Bewolking: Helder ft
LFQQ 182200Z AUTO 02007KT CAVOK 12/08 Q1024 NOSIG
EBFN - Koksijde (bel-Af, Belgium
Afstand tot: WNW 43 km
Gewijzigd: 18-10-2018 23:55
Helder  
Helder  
   Wind: ONO 11.1 km/h
Wind: ONO 11.1 km/h
Temperatuur: 11°C
Dauwpunt: 8°C
Vochtigheid: 82%
Barometer: 1025 hPa
Bewolking: Clear
Zicht: meer dan 10 km
Bewolking: Helder ft
EBFN 182155Z AUTO 07006KT 9999 NCD 11/08 Q1025 BLU
EBCV - Chievres Ab, Belgium
Afstand tot: ZO 59 km
Gewijzigd: 18-10-2018 23:55
Grotendeels bewolkt  
Grotendeels bewolkt  
   Wind: NNO 11.1 km/h
Wind: NNO 11.1 km/h
Temperatuur: 11°C
Dauwpunt: 8°C
Vochtigheid: 82%
Barometer: 1025 hPa
Bewolking: Mostly Cloudy
Zicht: meer dan 10 km
Bewolking: Grotendeels bewolkt 2700 ft
EBCV 182155Z AUTO 03006KT 9999 BKN027/// 11/08 Q1025 BLU
EHFS - Vlissingen, Netherlands
Afstand tot: NNO 65 km
Gewijzigd: 18-10-2018 23:55
Grotendeels bewolkt  
Grotendeels bewolkt  
   Wind: NO 14.8 km/h
Wind: NO 14.8 km/h
Temperatuur: 12°C
Dauwpunt: 9°C
Vochtigheid: 82%
Barometer: 1025 hPa
Bewolking: Mostly Cloudy
Zicht: meer dan 10 km
Bewolking: Grotendeels bewolkt 3600 ft
EHFS 182155Z AUTO 05008KT 9999 BKN036/// 12/09 Q1025 W///H///
EBBR - Brussels Nationa, Belgium
Afstand tot: O 91 km
Gewijzigd: 18-10-2018 23:50
Gedeeltelijk bewolkt  
Gedeeltelijk bewolkt  
   Wind: NO 7.4 km/h
Wind: NO 7.4 km/h
Temperatuur: 10°C
Voelt als: 9°C
Dauwpunt: 8°C
Vochtigheid: 88%
Barometer: 1025 hPa
Bewolking: Partly Cloudy
Zicht: meer dan 10 km
Bewolking: Licht bewolkt 2900 ft,
Gedeeltelijk bewolkt 4200 ft
EBBR 182150Z 04004KT 9999 FEW029 SCT042 10/08 Q1025 NOSIG
EBAW - Antwerp/Deurne, Belgium
Afstand tot: ONO 94 km
Gewijzigd: 18-10-2018 23:50
Bewolking  
Bewolking  
   Wind: NO 11.1 km/h
Wind: NO 11.1 km/h
Temperatuur: 13°C
Dauwpunt: 8°C
Vochtigheid: 72%
Barometer: 1025 hPa
Bewolking: Overcast
Zicht: meer dan 10 km
Bewolking: Bewolking 3600 ft
EBAW 182150Z AUTO 05006KT 9999 // OVC036/// 13/08 Q1025
EHWO - Woensdrecht Rnla, Netherlands
Afstand tot: NO 98 km
Gewijzigd: 18-10-2018 23:55
Bewolking  
Bewolking  
   Wind: NO 13 km/h
Wind: NO 13 km/h
Temperatuur: 13°C
Dauwpunt: 9°C
Vochtigheid: 77%
Barometer: 1025 hPa
Bewolking: Overcast
Zicht: meer dan 10 km
Bewolking: Bewolking 3400 ft
EHWO 182155Z AUTO 05007KT 010V070 9999 OVC034 13/09 Q1025 BLU
EBCI - Charleroi/Gossel, Belgium
Afstand tot: OZO 102 km
Gewijzigd: 18-10-2018 23:50
Grotendeels bewolkt  
Grotendeels bewolkt  
   Wind: NO 11.1 km/h
Wind: NO 11.1 km/h
Temperatuur: 11°C
Dauwpunt: 10°C
Vochtigheid: 94%
Barometer: 1024 hPa
Bewolking: Mostly Cloudy
Zicht: meer dan 10 km
Bewolking: Grotendeels bewolkt 1300 ft
EBCI 182150Z 05006KT 9999 BKN013 11/10 Q1024 NOSIG

Script ontwikkeld door  Saratoga-weather.org Aangepast voor de template door  Weerstation Leuven